Time,TemperatureF,DewpointF,PressureIn,WindDirection,WindDirectionDegrees,WindSpeedMPH,WindSpeedGustMPH,Humidity,HourlyPrecipIn,Conditions,Clouds,dailyrainin,SoftwareType,DateUTC
2013-08-11 00:02:00,60.1,53.0,29.95,SSW,206,0.0,0.0,78,0.00,,,0.00,weatherlink.com 1.10,2013-08-11 04:02:00,
2013-08-11 00:17:00,59.7,53.0,29.96,SSW,205,0.0,0.0,78,0.00,,,0.00,weatherlink.com 1.10,2013-08-11 04:17:00,
2013-08-11 00:32:00,60.0,52.0,29.95,SSW,207,0.0,0.0,76,0.00,,,0.00,weatherlink.com 1.10,2013-08-11 04:32:00,
2013-08-11 00:47:00,60.7,52.0,29.95,SW,222,0.0,1.0,74,0.00,,,0.00,weatherlink.com 1.10,2013-08-11 04:47:00,
2013-08-11 01:02:00,60.9,52.0,29.95,SW,232,0.0,1.0,73,0.00,,,0.00,weatherlink.com 1.10,2013-08-11 05:02:00,
2013-08-11 01:17:00,60.5,53.0,29.95,SSE,160,0.0,2.0,77,0.00,,,0.00,weatherlink.com 1.10,2013-08-11 05:17:00,
2013-08-11 01:32:00,59.4,52.0,29.95,SSW,195,0.0,1.0,77,0.00,,,0.00,weatherlink.com 1.10,2013-08-11 05:32:00,
2013-08-11 01:47:00,58.9,53.0,29.96,South,179,0.0,1.0,82,0.00,,,0.00,weatherlink.com 1.10,2013-08-11 05:47:00,
2013-08-11 02:02:00,57.6,53.0,29.96,SW,231,0.0,1.0,84,0.00,,,0.00,weatherlink.com 1.10,2013-08-11 06:02:00,
2013-08-11 02:17:00,57.1,53.0,29.96,SW,231,1.0,1.0,87,0.00,,,0.00,weatherlink.com 1.10,2013-08-11 06:17:00,
2013-08-11 02:32:00,55.9,52.0,29.96,SW,231,0.0,0.0,88,0.00,,,0.00,weatherlink.com 1.10,2013-08-11 06:32:00,
2013-08-11 02:47:00,55.7,52.0,29.97,SW,231,0.0,1.0,88,0.00,,,0.00,weatherlink.com 1.10,2013-08-11 06:47:00,
2013-08-11 03:02:00,54.8,52.0,29.97,SW,231,0.0,0.0,89,0.00,,,0.00,weatherlink.com 1.10,2013-08-11 07:02:00,
2013-08-11 03:17:00,55.1,52.0,29.97,SW,231,0.0,0.0,90,0.00,,,0.00,weatherlink.com 1.10,2013-08-11 07:17:00,
2013-08-11 04:02:00,54.3,52.0,29.98,SW,228,0.0,1.0,92,0.00,,,0.00,weatherlink.com 1.10,2013-08-11 08:02:00,
2013-08-11 04:17:00,54.0,52.0,29.98,SW,225,0.0,0.0,92,0.00,,,0.00,weatherlink.com 1.10,2013-08-11 08:17:00,
2013-08-11 04:32:00,53.9,52.0,29.98,SW,225,0.0,1.0,93,0.00,,,0.00,weatherlink.com 1.10,2013-08-11 08:32:00,
2013-08-11 05:03:00,53.6,52.0,29.98,SW,225,0.0,0.0,93,0.00,,,0.00,weatherlink.com 1.10,2013-08-11 09:03:00,
2013-08-11 05:18:00,53.6,52.0,29.98,SW,224,0.0,1.0,94,0.00,,,0.00,weatherlink.com 1.10,2013-08-11 09:18:00,
2013-08-11 05:33:00,53.8,52.0,29.99,SW,225,0.0,0.0,93,0.00,,,0.00,weatherlink.com 1.10,2013-08-11 09:33:00,
2013-08-11 05:48:00,53.9,52.0,29.99,SW,225,0.0,0.0,94,0.00,,,0.00,weatherlink.com 1.10,2013-08-11 09:48:00,
2013-08-11 06:03:00,54.2,52.0,30.00,SW,226,0.0,1.0,93,0.00,,,0.00,weatherlink.com 1.10,2013-08-11 10:03:00,
2013-08-11 06:18:00,54.8,53.0,30.00,SW,226,0.0,0.0,94,0.00,,,0.00,weatherlink.com 1.10,2013-08-11 10:18:00,
2013-08-11 06:48:00,57.5,56.0,30.00,SW,226,0.0,0.0,93,0.00,,,0.00,weatherlink.com 1.10,2013-08-11 10:48:00,
2013-08-11 07:03:00,58.8,56.0,30.00,SW,225,0.0,0.0,91,0.00,,,0.00,weatherlink.com 1.10,2013-08-11 11:03:00,
2013-08-11 07:18:00,59.8,56.0,30.00,SSW,203,0.0,1.0,87,0.00,,,0.00,weatherlink.com 1.10,2013-08-11 11:18:00,
2013-08-11 07:48:00,63.7,56.0,30.01,SW,231,0.0,2.0,77,0.00,,,0.00,weatherlink.com 1.10,2013-08-11 11:48:00,
2013-08-11 08:03:00,65.0,56.0,30.01,SSE,160,1.0,1.0,73,0.00,,,0.00,weatherlink.com 1.10,2013-08-11 12:03:00,
2013-08-11 08:18:00,65.8,58.0,30.01,South,173,1.0,2.0,75,0.00,,,0.00,weatherlink.com 1.10,2013-08-11 12:18:00,
2013-08-11 08:33:00,67.4,57.0,30.01,WSW,243,0.0,2.0,69,0.00,,,0.00,weatherlink.com 1.10,2013-08-11 12:33:00,
2013-08-11 08:50:00,68.1,57.0,30.01,SW,231,0.0,2.0,67,0.00,,,0.00,weatherlink.com 1.10,2013-08-11 12:50:00,
2013-08-11 09:06:00,69.3,57.0,30.01,South,177,0.0,1.0,65,0.00,,,0.00,weatherlink.com 1.10,2013-08-11 13:06:00,
2013-08-11 09:21:00,69.8,57.0,30.01,SSE,162,0.0,3.0,63,0.00,,,0.00,weatherlink.com 1.10,2013-08-11 13:21:00,
2013-08-11 09:36:00,70.5,56.0,30.01,West,263,1.0,3.0,61,0.00,,,0.00,weatherlink.com 1.10,2013-08-11 13:36:00,
2013-08-11 09:51:00,70.8,56.0,30.01,SW,221,0.0,2.0,59,0.00,,,0.00,weatherlink.com 1.10,2013-08-11 13:51:00,
2013-08-11 10:06:00,71.4,56.0,30.01,SSE,165,2.0,3.0,58,0.00,,,0.00,weatherlink.com 1.10,2013-08-11 14:06:00,
2013-08-11 10:36:00,72.4,55.0,30.01,West,277,2.0,4.0,54,0.00,,,0.00,weatherlink.com 1.10,2013-08-11 14:36:00,
2013-08-11 10:51:00,72.7,56.0,30.01,South,174,0.0,5.0,56,0.00,,,0.00,weatherlink.com 1.10,2013-08-11 14:51:00,
2013-08-11 11:06:00,73.2,56.0,30.00,SSE,166,1.0,6.0,55,0.00,,,0.00,weatherlink.com 1.10,2013-08-11 15:06:00,
2013-08-11 11:21:00,74.4,55.0,30.00,WSW,247,0.0,4.0,51,0.00,,,0.00,weatherlink.com 1.10,2013-08-11 15:21:00,
2013-08-11 11:36:00,75.0,55.0,30.00,SW,231,0.0,2.0,50,0.00,,,0.00,weatherlink.com 1.10,2013-08-11 15:36:00,
2013-08-11 11:51:00,76.3,56.0,30.00,ESE,117,3.0,3.0,50,0.00,,,0.00,weatherlink.com 1.10,2013-08-11 15:51:00,
2013-08-11 12:06:00,76.0,56.0,29.99,SSE,152,2.0,6.0,50,0.00,,,0.00,weatherlink.com 1.10,2013-08-11 16:06:00,
2013-08-11 12:21:00,76.4,57.0,29.99,SE,146,2.0,3.0,52,0.00,,,0.00,weatherlink.com 1.10,2013-08-11 16:21:00,
2013-08-11 12:36:00,76.7,54.0,29.99,SW,235,1.0,4.0,46,0.00,,,0.00,weatherlink.com 1.10,2013-08-11 16:36:00,
2013-08-11 12:51:00,76.5,56.0,29.98,SSE,155,3.0,6.0,49,0.00,,,0.00,weatherlink.com 1.10,2013-08-11 16:51:00,
2013-08-11 13:06:00,76.1,56.0,29.98,SSW,210,0.0,5.0,50,0.00,,,0.00,weatherlink.com 1.10,2013-08-11 17:06:00,
2013-08-11 13:21:00,77.3,55.0,29.98,SSE,164,2.0,3.0,46,0.00,,,0.00,weatherlink.com 1.10,2013-08-11 17:21:00,
2013-08-11 13:36:00,76.9,55.0,29.98,SSW,201,0.0,6.0,47,0.00,,,0.00,weatherlink.com 1.10,2013-08-11 17:36:00,
2013-08-11 14:21:00,77.3,55.0,29.96,SSE,165,1.0,3.0,47,0.00,,,0.00,weatherlink.com 1.10,2013-08-11 18:21:00,
2013-08-11 14:36:00,76.5,55.0,29.96,South,190,0.0,4.0,48,0.00,,,0.00,weatherlink.com 1.10,2013-08-11 18:36:00,
2013-08-11 14:51:00,76.8,57.0,29.96,SW,222,0.0,5.0,50,0.00,,,0.00,weatherlink.com 1.10,2013-08-11 18:51:00,
2013-08-11 15:06:00,75.7,57.0,29.95,South,186,1.0,4.0,52,0.00,,,0.00,weatherlink.com 1.10,2013-08-11 19:06:00,
2013-08-11 15:36:00,75.6,57.0,29.95,SSE,155,3.0,5.0,52,0.00,,,0.00,weatherlink.com 1.10,2013-08-11 19:36:00,
2013-08-11 15:52:00,71.0,57.0,29.95,SSE,160,8.0,14.0,61,0.00,,,0.00,weatherlink.com 1.10,2013-08-11 19:52:00,
2013-08-11 16:07:00,68.6,58.0,29.95,SSE,155,9.0,16.0,70,0.00,,,0.00,weatherlink.com 1.10,2013-08-11 20:07:00,
2013-08-11 16:52:00,68.6,59.0,29.94,SSE,156,7.0,12.0,72,0.00,,,0.00,weatherlink.com 1.10,2013-08-11 20:52:00,
2013-08-11 17:07:00,69.6,58.0,29.94,SSE,152,7.0,11.0,67,0.00,,,0.00,weatherlink.com 1.10,2013-08-11 21:07:00,
2013-08-11 17:52:00,68.6,58.0,29.94,SSE,152,7.0,10.0,69,0.00,,,0.00,weatherlink.com 1.10,2013-08-11 21:52:00,
2013-08-11 18:07:00,68.6,58.0,29.94,SSE,148,7.0,10.0,68,0.00,,,0.00,weatherlink.com 1.10,2013-08-11 22:07:00,
2013-08-11 18:22:00,68.5,58.0,29.94,SE,133,6.0,11.0,70,0.00,,,0.00,weatherlink.com 1.10,2013-08-11 22:22:00,
2013-08-11 18:37:00,68.6,57.0,29.94,SSE,148,5.0,10.0,66,0.00,,,0.00,weatherlink.com 1.10,2013-08-11 22:37:00,
2013-08-11 18:52:00,69.1,55.0,29.94,SSE,160,5.0,8.0,62,0.00,,,0.00,weatherlink.com 1.10,2013-08-11 22:52:00,
2013-08-11 19:07:00,68.2,58.0,29.95,SSE,158,4.0,10.0,71,0.00,,,0.00,weatherlink.com 1.10,2013-08-11 23:07:00,
2013-08-11 19:22:00,67.2,59.0,29.95,SSE,155,7.0,10.0,74,0.00,,,0.00,weatherlink.com 1.10,2013-08-11 23:22:00,
2013-08-11 19:52:00,66.5,57.0,29.95,SSE,158,2.0,5.0,71,0.00,,,0.00,weatherlink.com 1.10,2013-08-11 23:52:00,
2013-08-11 20:07:00,66.0,57.0,29.95,SW,218,0.0,4.0,73,0.00,,,0.00,weatherlink.com 1.10,2013-08-12 00:07:00,
2013-08-11 20:22:00,65.0,56.0,29.96,South,171,0.0,1.0,73,0.00,,,0.00,weatherlink.com 1.10,2013-08-12 00:22:00,
2013-08-11 20:37:00,64.6,56.0,29.97,SSW,200,0.0,1.0,74,0.00,,,0.00,weatherlink.com 1.10,2013-08-12 00:37:00,
2013-08-11 20:52:00,63.7,56.0,29.98,WSW,243,0.0,2.0,76,0.00,,,0.00,weatherlink.com 1.10,2013-08-12 00:52:00,
2013-08-11 21:22:00,62.9,56.0,29.97,SSE,167,0.0,2.0,79,0.00,,,0.00,weatherlink.com 1.10,2013-08-12 01:22:00,
2013-08-11 21:52:00,62.8,56.0,29.97,WSW,250,0.0,1.0,77,0.00,,,0.00,weatherlink.com 1.10,2013-08-12 01:52:00,
2013-08-11 22:22:00,61.2,55.0,29.98,SW,235,1.0,1.0,81,0.00,,,0.00,weatherlink.com 1.10,2013-08-12 02:22:00,
2013-08-11 22:37:00,60.4,56.0,29.98,South,172,0.0,1.0,84,0.00,,,0.00,weatherlink.com 1.10,2013-08-12 02:37:00,
2013-08-11 22:52:00,60.3,56.0,29.98,SW,235,0.0,1.0,84,0.00,,,0.00,weatherlink.com 1.10,2013-08-12 02:52:00,
2013-08-11 23:07:00,62.8,57.0,29.98,SSW,198,0.0,6.0,81,0.00,,,0.00,weatherlink.com 1.10,2013-08-12 03:07:00,
2013-08-11 23:22:00,63.1,57.0,29.98,SW,231,0.0,2.0,80,0.00,,,0.00,weatherlink.com 1.10,2013-08-12 03:22:00,
2013-08-11 23:37:00,63.7,57.0,29.98,SSW,210,0.0,2.0,79,0.00,,,0.00,weatherlink.com 1.10,2013-08-12 03:37:00,
2013-08-11 23:52:00,63.8,58.0,29.98,WSW,242,1.0,2.0,81,0.00,,,0.00,weatherlink.com 1.10,2013-08-12 03:52:00,